Cambridge, Maryland
Current Conditions -  °F | °C
As of 7:21 AM on Tuesday 27 Jan 2015 (Local Time) from KCGE Reporting Station
Broken Clouds Broken Clouds  
Wind Chill: 22°   Ceiling: 2500
Heat Index: 32°   Visibility: 10mi
Dew Point: 23°   Wind: 15mph
Humidity: 69%   Direction: 360°N
Pressure: 29.74"   Gusts: 22mph
Location:  38.56°N, 76.08°W
Report Text: KCGE 271221Z AUTO 36013G19KT 10SM BKN025 BKN037 00/M05 A2974 RMK AO1
Loading
Personal Weather Stations






























Interactive Weather Map New forecast layout! Learn more

10-Day Weather Forecast

Advertisements
Track Severe Weather on mobile